Time;durP1;ratioP1;P1;durP2;ratioP2;P2;SDS_P1;SDS_P2;PMS_P1;PMS_P2;Temp;Humidity;BMP_temperature;BMP_pressure;BME280_temperature;BME280_humidity;BME280_pressure;Samples;Min_cycle;Max_cycle;Signal;HPM_P1;HPM_P2
2023/07/10 00:01:27;;;;;;;0.10;0.10;;;24.00;97.30;;;;;;5051297;28;20702;-66
2023/07/10 00:03:54;;;;;;;0.00;0.00;;;23.90;97.40;;;;;;5052344;28;21203;-66
2023/07/10 00:06:19;;;;;;;0.08;0.08;;;23.90;97.90;;;;;;5053337;28;20648;-66
2023/07/10 00:08:45;;;;;;;0.15;0.08;;;23.80;97.90;;;;;;5052893;28;20264;-66
2023/07/10 00:11:26;;;;;;;0.13;0.13;;;23.80;97.90;;;;;;5052825;28;20182;-66
2023/07/10 00:13:51;;;;;;;0.00;0.00;;;23.90;97.80;;;;;;5052818;28;20193;-66
2023/07/10 00:16:20;;;;;;;0.00;0.00;;;23.80;97.80;;;;;;5051873;28;20188;-65
2023/07/10 00:18:47;;;;;;;0.00;0.00;;;23.90;97.80;;;;;;5052706;28;20614;-66
2023/07/10 00:21:12;;;;;;;0.00;0.00;;;24.00;97.90;;;;;;5051234;28;20271;-66
2023/07/10 00:23:38;;;;;;;0.00;0.00;;;24.00;97.80;;;;;;5052607;28;20284;-66
2023/07/10 00:26:22;;;;;;;0.00;0.00;;;24.00;97.80;;;;;;5051515;28;20181;-66
2023/07/10 00:28:49;;;;;;;0.00;0.00;;;24.10;98.00;;;;;;5052081;28;20217;-66
2023/07/10 00:31:15;;;;;;;0.00;0.00;;;24.00;98.00;;;;;;5049212;28;20181;-66
2023/07/10 00:33:40;;;;;;;0.00;0.00;;;24.00;98.10;;;;;;5052263;28;20194;-66
2023/07/10 00:36:38;;;;;;;0.05;0.05;;;24.00;98.20;;;;;;5051206;28;20265;-66
2023/07/10 00:39:35;;;;;;;0.00;0.00;;;23.90;98.40;;;;;;5049615;28;20207;-65
2023/07/10 00:42:06;;;;;;;0.00;0.00;;;23.80;98.50;;;;;;5039005;28;20240;-66
2023/07/10 00:44:35;;;;;;;0.20;0.20;;;23.80;98.70;;;;;;5052144;28;20296;-66
2023/07/10 00:47:15;;;;;;;0.00;0.00;;;23.80;98.70;;;;;;5048547;28;20851;-65
2023/07/10 00:49:54;;;;;;;0.10;0.10;;;23.80;99.00;;;;;;5051749;28;20173;-65
2023/07/10 00:52:28;;;;;;;0.17;0.17;;;23.70;99.10;;;;;;5051969;28;20192;-65
2023/07/10 00:54:57;;;;;;;0.00;0.00;;;23.70;99.10;;;;;;5052023;28;20200;-66
2023/07/10 00:57:33;;;;;;;0.00;0.00;;;23.70;99.20;;;;;;5050714;28;20779;-66
2023/07/10 00:59:59;;;;;;;0.00;0.00;;;23.70;99.30;;;;;;5052045;28;20212;-66
2023/07/10 01:02:25;;;;;;;0.00;0.00;;;23.70;99.40;;;;;;5051521;28;20170;-66
2023/07/10 01:05:03;;;;;;;0.20;0.20;;;23.70;99.40;;;;;;5051256;28;20568;-65
2023/07/10 01:07:35;;;;;;;0.03;0.03;;;23.70;99.40;;;;;;5049231;28;20184;-65
2023/07/10 01:10:04;;;;;;;0.22;0.22;;;23.70;99.40;;;;;;5052121;28;20242;-66
2023/07/10 01:12:32;;;;;;;0.00;0.00;;;23.70;99.40;;;;;;5052072;28;20639;-65
2023/07/10 01:14:58;;;;;;;0.00;0.00;;;23.70;99.50;;;;;;5050088;28;20253;-66
2023/07/10 01:17:24;;;;;;;0.00;0.00;;;23.70;99.60;;;;;;5051901;28;20181;-66
2023/07/10 01:19:55;;;;;;;0.00;0.00;;;23.70;99.70;;;;;;5052042;28;20181;-66
2023/07/10 01:22:20;;;;;;;0.00;0.00;;;23.60;99.70;;;;;;5051798;28;20250;-66
2023/07/10 01:24:52;;;;;;;0.00;0.00;;;23.60;99.80;;;;;;5050837;28;20610;-66
2023/07/10 01:27:20;;;;;;;0.00;0.00;;;23.50;99.90;;;;;;5031652;28;20205;-65
2023/07/10 01:30:11;;;;;;;0.10;0.10;;;23.50;99.90;;;;;;5032284;28;20212;-66
2023/07/10 01:32:37;;;;;;;0.10;0.10;;;23.50;99.90;;;;;;5028093;28;20182;-65
2023/07/10 01:35:05;;;;;;;0.00;0.00;;;23.50;99.90;;;;;;5043482;28;20264;-66
2023/07/10 01:37:31;;;;;;;0.00;0.00;;;23.50;99.90;;;;;;5052048;28;20165;-65
2023/07/10 01:39:56;;;;;;;0.00;0.00;;;23.50;99.90;;;;;;5051586;28;20185;-67
2023/07/10 01:42:22;;;;;;;0.00;0.00;;;23.50;99.90;;;;;;5051654;28;20173;-67
2023/07/10 01:44:49;;;;;;;0.00;0.00;;;23.50;99.90;;;;;;5051835;28;20564;-66
2023/07/10 01:47:15;;;;;;;0.10;0.10;;;23.50;99.90;;;;;;5051981;28;20567;-65
2023/07/10 01:49:44;;;;;;;0.05;0.05;;;23.50;99.90;;;;;;5051360;28;20189;-66
2023/07/10 01:52:13;;;;;;;0.70;0.43;;;23.50;99.90;;;;;;5051396;28;20169;-68
2023/07/10 01:54:38;;;;;;;0.00;0.00;;;23.50;99.90;;;;;;5051171;28;20580;-67
2023/07/10 01:57:05;;;;;;;0.00;0.00;;;23.50;99.90;;;;;;5051507;28;20177;-67
2023/07/10 01:59:31;;;;;;;0.00;0.00;;;23.50;99.90;;;;;;5050454;28;20185;-67
2023/07/10 02:01:57;;;;;;;0.13;0.13;;;23.50;99.90;;;;;;5049757;28;20181;-67
2023/07/10 02:04:24;;;;;;;0.00;0.00;;;23.50;99.90;;;;;;5050945;28;20205;-67
2023/07/10 02:06:49;;;;;;;0.00;0.00;;;23.50;99.90;;;;;;5049705;28;20260;-67
2023/07/10 02:09:15;;;;;;;0.00;0.00;;;23.50;99.90;;;;;;5050640;28;20611;-67
2023/07/10 02:11:41;;;;;;;0.55;0.55;;;23.50;99.90;;;;;;5050417;28;20636;-67
2023/07/10 02:14:08;;;;;;;0.00;0.00;;;23.50;99.90;;;;;;5050447;28;20177;-67
2023/07/10 02:16:34;;;;;;;0.00;0.00;;;23.50;99.90;;;;;;5050846;28;20177;-67
2023/07/10 02:19:00;;;;;;;0.00;0.00;;;23.50;99.90;;;;;;5050678;28;20234;-67
2023/07/10 02:21:26;;;;;;;0.00;0.00;;;23.50;99.90;;;;;;5050419;28;20177;-67
2023/07/10 02:23:52;;;;;;;0.00;0.00;;;23.50;99.90;;;;;;5050460;28;20292;-67
2023/07/10 02:26:18;;;;;;;0.10;0.10;;;23.50;99.90;;;;;;5050412;28;20257;-67
2023/07/10 02:28:44;;;;;;;0.10;0.10;;;23.40;99.90;;;;;;5050287;28;20229;-67
2023/07/10 02:31:10;;;;;;;0.00;0.00;;;23.40;99.90;;;;;;5050681;28;20177;-67
2023/07/10 02:33:36;;;;;;;0.47;0.45;;;23.40;99.90;;;;;;5039109;28;20665;-67
2023/07/10 02:36:02;;;;;;;0.00;0.00;;;23.40;99.90;;;;;;5050735;28;20185;-67
2023/07/10 02:38:28;;;;;;;0.00;0.00;;;23.40;99.90;;;;;;5050621;28;20249;-67
2023/07/10 02:40:54;;;;;;;0.00;0.00;;;23.40;99.90;;;;;;5050732;28;20272;-64
2023/07/10 02:43:20;;;;;;;0.00;0.00;;;23.40;99.90;;;;;;5050490;28;20290;-64
2023/07/10 02:45:45;;;;;;;0.00;0.00;;;23.40;99.90;;;;;;5049486;28;20213;-65
2023/07/10 02:48:11;;;;;;;0.03;0.03;;;23.30;99.90;;;;;;5050964;28;20196;-65
2023/07/10 02:50:36;;;;;;;0.00;0.00;;;23.30;99.90;;;;;;5050374;28;20177;-65
2023/07/10 02:53:02;;;;;;;0.08;0.08;;;23.30;99.90;;;;;;5050827;28;20186;-65
2023/07/10 02:55:28;;;;;;;0.00;0.00;;;23.30;99.90;;;;;;5050119;28;20221;-65
2023/07/10 02:57:54;;;;;;;0.00;0.00;;;23.30;99.90;;;;;;5050630;28;20207;-65
2023/07/10 03:00:19;;;;;;;0.00;0.00;;;23.30;99.90;;;;;;5049968;28;20178;-65
2023/07/10 03:02:45;;;;;;;0.00;0.00;;;23.40;99.90;;;;;;5051217;28;20178;-66
2023/07/10 03:05:10;;;;;;;0.10;0.10;;;23.30;99.90;;;;;;5050273;28;20676;-65
2023/07/10 03:07:36;;;;;;;0.00;0.00;;;23.40;99.90;;;;;;5050373;28;20213;-65
2023/07/10 03:10:02;;;;;;;0.32;0.30;;;23.30;99.90;;;;;;5050632;28;20582;-65
2023/07/10 03:12:28;;;;;;;0.00;0.00;;;23.30;99.90;;;;;;5050410;28;20177;-65
2023/07/10 03:14:53;;;;;;;0.00;0.00;;;23.20;99.90;;;;;;5050616;28;20177;-65
2023/07/10 03:17:19;;;;;;;0.00;0.00;;;23.20;99.90;;;;;;5050351;28;20173;-65
2023/07/10 03:19:47;;;;;;;0.10;0.10;;;23.20;99.90;;;;;;5050290;28;20505;-65
2023/07/10 03:22:13;;;;;;;0.00;0.00;;;23.20;99.90;;;;;;5050326;28;20185;-64
2023/07/10 03:24:39;;;;;;;0.00;0.00;;;23.20;99.90;;;;;;5050958;28;20217;-64
2023/07/10 03:27:05;;;;;;;0.00;0.00;;;23.20;99.90;;;;;;5054006;28;20177;-64
2023/07/10 03:29:30;;;;;;;0.00;0.00;;;23.20;99.90;;;;;;5052260;28;20193;-64
2023/07/10 03:31:56;;;;;;;0.05;0.05;;;23.20;99.90;;;;;;5053952;28;20178;-65
2023/07/10 03:34:22;;;;;;;0.05;0.05;;;23.20;99.90;;;;;;5053260;28;20184;-66
2023/07/10 03:36:47;;;;;;;0.00;0.00;;;23.30;99.90;;;;;;5053563;28;20282;-66
2023/07/10 03:39:13;;;;;;;0.10;0.10;;;23.30;99.90;;;;;;5054276;28;20664;-65
2023/07/10 03:41:39;;;;;;;0.10;0.10;;;23.30;99.90;;;;;;5064638;28;20647;-67
2023/07/10 03:44:04;;;;;;;0.00;0.00;;;23.30;99.90;;;;;;5058957;28;20212;-67
2023/07/10 03:46:30;;;;;;;0.10;0.10;;;23.30;99.90;;;;;;5060422;28;20192;-64
2023/07/10 03:48:55;;;;;;;0.00;0.00;;;23.30;99.90;;;;;;5052445;28;20205;-66
2023/07/10 03:51:21;;;;;;;0.00;0.00;;;23.30;99.90;;;;;;5053376;28;20248;-65
2023/07/10 03:53:47;;;;;;;0.00;0.00;;;23.40;99.90;;;;;;5053644;28;20703;-64
2023/07/10 03:56:13;;;;;;;0.00;0.00;;;23.30;99.90;;;;;;5053241;28;20548;-63
2023/07/10 03:58:43;;;;;;;0.05;0.05;;;23.30;99.90;;;;;;5052129;28;20256;-59
2023/07/10 04:01:10;;;;;;;0.00;0.00;;;23.30;99.90;;;;;;5053034;28;20268;-60
2023/07/10 04:03:37;;;;;;;0.00;0.00;;;23.30;99.90;;;;;;5052280;28;20615;-63
2023/07/10 04:06:04;;;;;;;0.00;0.00;;;23.20;99.90;;;;;;5052092;28;20194;-62
2023/07/10 04:08:33;;;;;;;0.00;0.00;;;23.20;99.90;;;;;;5052237;28;20170;-62
2023/07/10 04:11:06;;;;;;;0.00;0.00;;;23.30;99.90;;;;;;5052662;28;20185;-61
2023/07/10 04:13:31;;;;;;;0.00;0.00;;;23.30;99.90;;;;;;5052202;28;20528;-62
2023/07/10 04:16:00;;;;;;;0.00;0.00;;;23.30;99.90;;;;;;5052294;28;20181;-63
2023/07/10 04:18:28;;;;;;;0.00;0.00;;;23.30;99.90;;;;;;5052696;28;20186;-63
2023/07/10 04:20:53;;;;;;;0.45;0.45;;;23.50;99.90;;;;;;5052795;28;20271;-63
2023/07/10 04:23:19;;;;;;;0.00;0.00;;;23.60;99.90;;;;;;5051861;28;20248;-63
2023/07/10 04:25:45;;;;;;;0.10;0.10;;;23.70;99.90;;;;;;5052920;28;20173;-64
2023/07/10 04:28:11;;;;;;;0.08;0.08;;;23.80;99.90;;;;;;5052580;28;20324;-63
2023/07/10 04:30:36;;;;;;;0.00;0.00;;;23.90;99.90;;;;;;5052184;28;20178;-64
2023/07/10 04:33:02;;;;;;;0.00;0.00;;;24.10;99.90;;;;;;5052828;28;20219;-64
2023/07/10 04:35:27;;;;;;;0.00;0.00;;;24.30;99.90;;;;;;5051992;28;20268;-64
2023/07/10 04:37:53;;;;;;;0.00;0.00;;;24.40;99.90;;;;;;5052685;28;20645;-64
2023/07/10 04:40:18;;;;;;;0.00;0.00;;;24.70;99.90;;;;;;5051292;28;20538;-64
2023/07/10 04:42:44;;;;;;;0.10;0.10;;;24.90;99.90;;;;;;5052620;28;20686;-64
2023/07/10 04:45:10;;;;;;;0.00;0.00;;;25.00;99.90;;;;;;5052441;28;20622;-64
2023/07/10 04:47:35;;;;;;;0.00;0.00;;;25.00;99.90;;;;;;5052329;28;20177;-64
2023/07/10 04:50:00;;;;;;;0.08;0.08;;;24.90;99.90;;;;;;5052472;28;20256;-63
2023/07/10 04:52:26;;;;;;;0.00;0.00;;;24.80;99.90;;;;;;5052214;28;20178;-63
2023/07/10 04:54:52;;;;;;;0.00;0.00;;;24.80;99.90;;;;;;5052340;28;20186;-63
2023/07/10 04:57:17;;;;;;;0.00;0.00;;;24.70;99.90;;;;;;5052191;28;20633;-64
2023/07/10 04:59:45;;;;;;;0.13;0.13;;;24.70;99.90;;;;;;5052274;28;20178;-65
2023/07/10 05:02:10;;;;;;;0.00;0.00;;;24.70;99.90;;;;;;5052006;28;20186;-63
2023/07/10 05:04:36;;;;;;;0.00;0.00;;;24.90;99.90;;;;;;5051917;28;20232;-63
2023/07/10 05:07:03;;;;;;;0.00;0.00;;;25.00;99.90;;;;;;5052262;28;20190;-63
2023/07/10 05:09:31;;;;;;;0.00;0.00;;;25.00;99.90;;;;;;5052469;28;20189;-63
2023/07/10 05:11:57;;;;;;;0.00;0.00;;;25.00;99.90;;;;;;5051567;28;20542;-63
2023/07/10 05:14:24;;;;;;;0.08;0.08;;;24.90;99.90;;;;;;5052408;28;20204;-64
2023/07/10 05:16:50;;;;;;;0.20;0.20;;;24.70;99.90;;;;;;5050798;28;20177;-63
2023/07/10 05:19:16;;;;;;;0.00;0.00;;;24.60;99.90;;;;;;5051791;28;20677;-63
2023/07/10 05:21:41;;;;;;;0.00;0.00;;;24.50;99.90;;;;;;5051680;28;20247;-64
2023/07/10 05:24:07;;;;;;;0.20;0.20;;;24.40;99.90;;;;;;5051712;28;20221;-64
2023/07/10 05:26:32;;;;;;;0.00;0.00;;;24.50;99.90;;;;;;5051683;28;20520;-63
2023/07/10 05:28:58;;;;;;;0.10;0.00;;;24.60;99.90;;;;;;5051257;28;20237;-63
2023/07/10 05:31:24;;;;;;;0.00;0.00;;;24.60;99.90;;;;;;5051567;28;20682;-63
2023/07/10 05:33:50;;;;;;;0.00;0.00;;;24.60;99.90;;;;;;5051688;28;20185;-63
2023/07/10 05:36:17;;;;;;;0.00;0.00;;;24.70;99.90;;;;;;5051652;28;20703;-64
2023/07/10 05:38:48;;;;;;;0.00;0.00;;;24.90;99.90;;;;;;5051445;28;20280;-63
2023/07/10 05:41:18;;;;;;;0.20;0.10;;;25.10;99.90;;;;;;5051439;28;20615;-63
2023/07/10 05:43:43;;;;;;;0.00;0.00;;;25.00;99.90;;;;;;5051552;28;20271;-63
2023/07/10 05:46:10;;;;;;;0.00;0.00;;;25.20;99.90;;;;;;5051361;28;20598;-63
2023/07/10 05:48:36;;;;;;;0.00;0.00;;;25.30;99.90;;;;;;5050535;28;20632;-63
2023/07/10 05:51:02;;;;;;;0.00;0.00;;;25.50;99.90;;;;;;5051318;28;20185;-63
2023/07/10 05:53:28;;;;;;;0.00;0.00;;;25.70;99.90;;;;;;5051241;28;20178;-63
2023/07/10 05:55:55;;;;;;;0.00;0.00;;;25.80;99.90;;;;;;5051541;28;20521;-63
2023/07/10 05:58:24;;;;;;;0.00;0.00;;;26.20;99.90;;;;;;5049600;28;20513;-63
2023/07/10 06:00:52;;;;;;;0.00;0.00;;;27.10;99.90;;;;;;5051279;28;20170;-63
2023/07/10 06:03:19;;;;;;;0.00;0.00;;;28.00;99.20;;;;;;5051034;28;20201;-63
2023/07/10 06:05:58;;;;;;;0.00;0.00;;;28.10;97.70;;;;;;5050752;28;20550;-63
2023/07/10 06:08:26;;;;;;;0.00;0.00;;;28.20;97.50;;;;;;5050965;28;20177;-63
2023/07/10 06:10:52;;;;;;;0.00;0.00;;;28.20;97.50;;;;;;5050880;28;20270;-63
2023/07/10 06:13:17;;;;;;;0.08;0.08;;;28.10;97.10;;;;;;5050742;28;20179;-63
2023/07/10 06:15:45;;;;;;;1.45;0.77;;;27.90;97.30;;;;;;5050818;28;20173;-63
2023/07/10 06:18:10;;;;;;;0.00;0.00;;;28.10;97.50;;;;;;5050881;28;20238;-63
2023/07/10 06:20:36;;;;;;;0.00;0.00;;;28.60;96.90;;;;;;5050902;28;20181;-64
2023/07/10 06:23:02;;;;;;;0.10;0.10;;;28.80;96.10;;;;;;5051001;28;20281;-64
2023/07/10 06:25:27;;;;;;;0.00;0.00;;;28.70;96.10;;;;;;5050960;28;20264;-64
2023/07/10 06:27:53;;;;;;;0.00;0.00;;;28.70;95.80;;;;;;5050792;28;20754;-64
2023/07/10 06:30:19;;;;;;;0.00;0.00;;;28.50;96.00;;;;;;5050769;28;20177;-64
2023/07/10 06:32:44;;;;;;;0.00;0.00;;;28.10;96.40;;;;;;5050930;28;20192;-64
2023/07/10 06:35:13;;;;;;;0.00;0.00;;;27.70;97.10;;;;;;5050757;28;20185;-64
2023/07/10 06:37:40;;;;;;;0.00;0.00;;;27.60;97.50;;;;;;5050964;28;20162;-64
2023/07/10 06:40:09;;;;;;;0.00;0.00;;;27.60;97.60;;;;;;5051043;28;20218;-64
2023/07/10 06:42:35;;;;;;;0.00;0.00;;;27.60;97.60;;;;;;5050781;28;20534;-64
2023/07/10 06:45:01;;;;;;;0.00;0.00;;;27.60;97.90;;;;;;5051033;28;20217;-63
2023/07/10 06:47:26;;;;;;;0.20;0.20;;;28.00;97.70;;;;;;5049679;28;20585;-64
2023/07/10 06:49:52;;;;;;;3.40;0.22;;;28.60;97.00;;;;;;5049582;28;20177;-64
2023/07/10 06:52:18;;;;;;;0.00;0.00;;;29.20;96.60;;;;;;5050633;28;20264;-64
2023/07/10 06:54:43;;;;;;;0.10;0.00;;;29.80;95.20;;;;;;5049709;28;20178;-64
2023/07/10 06:57:09;;;;;;;0.00;0.00;;;30.40;94.10;;;;;;5050856;28;20254;-63
2023/07/10 06:59:34;;;;;;;0.00;0.00;;;30.70;93.50;;;;;;5053265;28;20173;-63
2023/07/10 07:02:00;;;;;;;0.00;0.00;;;31.20;92.40;;;;;;5054411;28;20189;-64
2023/07/10 07:04:25;;;;;;;0.05;0.05;;;31.60;91.50;;;;;;5054346;28;20213;-63
2023/07/10 07:06:51;;;;;;;0.10;0.10;;;31.50;90.70;;;;;;5054671;28;20648;-63
2023/07/10 07:09:16;;;;;;;0.00;0.00;;;31.50;90.60;;;;;;5054480;28;20211;-63
2023/07/10 07:11:42;;;;;;;0.00;0.00;;;31.70;90.30;;;;;;5054435;28;20713;-63
2023/07/10 07:14:07;;;;;;;0.00;0.00;;;31.80;89.50;;;;;;5054545;28;20204;-63
2023/07/10 07:16:33;;;;;;;0.30;0.30;;;32.10;89.00;;;;;;5054249;28;20253;-63
2023/07/10 07:18:58;;;;;;;0.08;0.08;;;32.60;87.60;;;;;;5054213;28;20173;-63
2023/07/10 07:21:24;;;;;;;0.00;0.00;;;32.90;86.50;;;;;;5054248;28;20183;-63
2023/07/10 07:23:49;;;;;;;0.05;0.00;;;32.80;83.50;;;;;;5054164;28;20208;-64
2023/07/10 07:26:15;;;;;;;0.00;0.00;;;33.00;83.80;;;;;;5054222;28;20177;-63
2023/07/10 07:28:40;;;;;;;0.00;0.00;;;33.30;83.70;;;;;;5054263;28;20232;-63
2023/07/10 07:31:06;;;;;;;0.20;0.20;;;33.60;80.80;;;;;;5054530;28;20184;-63
2023/07/10 07:33:32;;;;;;;0.00;0.00;;;34.10;79.40;;;;;;5054160;28;20204;-63
2023/07/10 07:36:00;;;;;;;0.00;0.00;;;34.20;77.40;;;;;;5053468;28;20538;-63
2023/07/10 07:38:26;;;;;;;0.10;0.05;;;34.10;78.00;;;;;;5052927;28;20256;-63
2023/07/10 07:40:52;;;;;;;0.00;0.00;;;33.40;77.70;;;;;;5053754;28;20264;-62
2023/07/10 07:43:18;;;;;;;0.00;0.00;;;33.30;79.50;;;;;;5042680;28;20250;-62
2023/07/10 07:45:55;;;;;;;0.30;0.20;;;33.30;79.70;;;;;;5054220;28;20169;-62
2023/07/10 07:48:22;;;;;;;0.00;0.00;;;33.10;79.50;;;;;;5054036;28;20180;-63
2023/07/10 07:51:03;;;;;;;0.30;0.30;;;33.30;80.00;;;;;;5053752;28;20173;-63
2023/07/10 07:53:32;;;;;;;0.00;0.00;;;33.10;79.40;;;;;;5053773;28;20731;-63
2023/07/10 07:55:57;;;;;;;0.00;0.00;;;32.90;80.20;;;;;;5053378;28;20268;-63
2023/07/10 07:58:23;;;;;;;0.00;0.00;;;32.90;79.70;;;;;;5053932;28;20582;-63
2023/07/10 08:00:49;;;;;;;0.00;0.00;;;32.90;80.70;;;;;;5053989;28;20169;-63
2023/07/10 08:03:15;;;;;;;0.00;0.00;;;33.50;80.80;;;;;;5052789;28;20283;-62
2023/07/10 08:05:40;;;;;;;0.00;0.00;;;33.80;78.80;;;;;;5053676;28;20272;-63
2023/07/10 08:08:10;;;;;;;0.00;0.00;;;34.20;77.00;;;;;;5053826;28;20165;-63
2023/07/10 08:10:42;;;;;;;0.10;0.00;;;34.60;76.90;;;;;;5052822;28;20517;-62
2023/07/10 08:13:09;;;;;;;0.00;0.00;;;35.20;75.10;;;;;;5053792;28;20660;-63
2023/07/10 08:15:35;;;;;;;0.00;0.00;;;35.70;72.90;;;;;;5053511;28;20205;-63
2023/07/10 08:18:01;;;;;;;0.00;0.00;;;36.10;72.00;;;;;;5053656;28;20184;-63
2023/07/10 08:20:26;;;;;;;0.00;0.00;;;36.00;69.90;;;;;;5053568;28;20172;-63
2023/07/10 08:22:52;;;;;;;0.25;0.25;;;35.70;70.40;;;;;;5053487;28;20533;-63
2023/07/10 08:25:17;;;;;;;0.00;0.00;;;35.60;70.40;;;;;;5053321;28;20176;-63
2023/07/10 08:27:45;;;;;;;0.00;0.00;;;35.60;71.20;;;;;;5053240;28;20213;-63
2023/07/10 08:30:11;;;;;;;0.00;0.00;;;35.30;69.90;;;;;;5053419;28;20200;-63
2023/07/10 08:32:36;;;;;;;0.00;0.00;;;34.80;70.50;;;;;;5053188;28;20185;-63
2023/07/10 08:35:02;;;;;;;0.10;0.10;;;34.50;71.20;;;;;;5053229;28;20188;-63
2023/07/10 08:37:28;;;;;;;0.00;0.00;;;34.30;72.60;;;;;;5053229;28;20165;-63
2023/07/10 08:39:55;;;;;;;0.00;0.00;;;34.20;73.00;;;;;;5053253;28;20177;-63
2023/07/10 08:42:27;;;;;;;0.00;0.00;;;33.90;72.90;;;;;;5053086;28;20177;-63
2023/07/10 08:44:53;;;;;;;0.00;0.00;;;33.90;73.80;;;;;;5052905;28;20679;-63
2023/07/10 08:47:35;;;;;;;0.15;0.00;;;34.20;73.70;;;;;;5052916;28;20184;-60
2023/07/10 08:50:12;;;;;;;0.00;0.00;;;34.30;72.50;;;;;;5052845;28;20235;-60
2023/07/10 08:52:50;;;;;;;0.03;0.03;;;34.20;72.10;;;;;;5052797;28;20180;-60
2023/07/10 08:55:27;;;;;;;0.52;0.10;;;34.10;73.40;;;;;;5052855;28;20612;-61
2023/07/10 08:58:00;;;;;;;0.10;0.00;;;33.50;75.30;;;;;;5052831;28;20203;-60
2023/07/10 09:00:27;;;;;;;0.40;0.40;;;33.40;74.60;;;;;;5052686;28;20173;-60
2023/07/10 09:03:23;;;;;;;0.08;0.03;;;33.60;76.10;;;;;;5052652;28;20173;-60
2023/07/10 09:05:52;;;;;;;0.00;0.00;;;33.70;72.90;;;;;;5052732;28;20213;-60
2023/07/10 09:08:17;;;;;;;0.30;0.30;;;33.70;72.90;;;;;;5052495;28;20259;-60
2023/07/10 09:10:46;;;;;;;0.00;0.00;;;33.50;73.00;;;;;;5052539;28;20508;-60
2023/07/10 09:13:16;;;;;;;0.00;0.00;;;33.40;74.80;;;;;;5052518;28;20644;-61
2023/07/10 09:15:49;;;;;;;0.00;0.00;;;33.50;74.10;;;;;;5052148;28;20188;-60
2023/07/10 09:18:41;;;;;;;0.00;0.00;;;33.50;73.40;;;;;;5059649;28;20169;-62
2023/07/10 09:21:30;;;;;;;0.00;0.00;;;33.50;72.30;;;;;;5052171;28;20231;-63
2023/07/10 09:23:56;;;;;;;0.05;0.05;;;33.30;73.60;;;;;;5051104;28;20266;-63
2023/07/10 09:26:28;;;;;;;0.00;0.00;;;33.30;74.00;;;;;;5052113;28;20184;-63
2023/07/10 09:29:14;;;;;;;0.10;0.00;;;33.60;74.20;;;;;;5052119;28;20600;-63
2023/07/10 09:32:03;;;;;;;0.00;0.00;;;33.60;72.70;;;;;;5051977;28;20177;-63
2023/07/10 09:34:33;;;;;;;0.00;0.00;;;33.60;72.50;;;;;;5052056;28;20185;-63
2023/07/10 09:37:02;;;;;;;0.00;0.00;;;33.20;73.20;;;;;;5051452;28;20279;-63
2023/07/10 09:39:29;;;;;;;0.00;0.00;;;33.10;74.30;;;;;;5051948;28;20184;-63
2023/07/10 09:42:00;;;;;;;0.00;0.00;;;32.80;75.50;;;;;;5052002;28;20259;-63
2023/07/10 09:44:37;;;;;;;0.00;0.00;;;32.80;76.90;;;;;;5051895;28;20204;-63
2023/07/10 09:47:11;;;;;;;0.30;0.30;;;33.10;76.80;;;;;;5051735;28;20183;-63
2023/07/10 09:49:44;;;;;;;0.00;0.00;;;33.40;76.90;;;;;;5051736;28;20180;-63
2023/07/10 09:52:19;;;;;;;0.00;0.00;;;33.70;74.40;;;;;;5051889;28;20175;-63
2023/07/10 09:54:45;;;;;;;0.10;0.10;;;33.60;72.00;;;;;;5051767;28;20173;-63
2023/07/10 09:57:18;;;;;;;0.00;0.00;;;33.20;71.70;;;;;;5051395;28;20189;-63
2023/07/10 10:00:03;;;;;;;0.00;0.00;;;33.00;71.80;;;;;;5051407;28;20176;-63
2023/07/10 10:02:51;;;;;;;0.00;0.00;;;33.00;73.30;;;;;;5051301;28;20327;-63
2023/07/10 10:05:19;;;;;;;0.00;0.00;;;32.70;74.30;;;;;;5051213;28;20217;-63
2023/07/10 10:07:50;;;;;;;0.00;0.00;;;32.60;75.50;;;;;;5051004;28;20201;-63
2023/07/10 10:10:22;;;;;;;0.43;0.43;;;32.60;74.90;;;;;;5051504;28;20658;-63
2023/07/10 10:13:12;;;;;;;0.00;0.00;;;32.70;75.70;;;;;;5051538;28;20173;-63
2023/07/10 10:15:44;;;;;;;0.00;0.00;;;33.00;75.00;;;;;;5051241;28;20180;-63
2023/07/10 10:18:33;;;;;;;0.00;0.00;;;33.10;75.20;;;;;;5051544;28;20165;-63
2023/07/10 10:21:01;;;;;;;0.00;0.00;;;33.00;74.20;;;;;;5048162;28;20193;-63
2023/07/10 10:23:33;;;;;;;0.00;0.00;;;33.00;74.20;;;;;;5051195;28;20291;-63
2023/07/10 10:26:15;;;;;;;0.15;0.15;;;33.00;74.80;;;;;;5050776;28;20238;-63
2023/07/10 10:28:48;;;;;;;0.10;0.10;;;33.10;75.70;;;;;;5032743;28;20233;-63
2023/07/10 10:31:21;;;;;;;0.00;0.00;;;33.50;76.70;;;;;;5040275;28;20247;-63
2023/07/10 10:34:07;;;;;;;0.00;0.00;;;34.00;73.50;;;;;;5050948;28;20177;-63
2023/07/10 10:36:40;;;;;;;0.00;0.00;;;34.40;70.60;;;;;;5051272;28;20287;-63
2023/07/10 10:39:30;;;;;;;0.00;0.00;;;34.90;69.60;;;;;;5050375;28;20203;-63
2023/07/10 10:42:03;;;;;;;0.00;0.00;;;34.80;66.70;;;;;;5051218;28;20589;-63
2023/07/10 10:44:37;;;;;;;0.20;0.20;;;34.40;65.60;;;;;;5050729;28;20216;-62
2023/07/10 10:47:30;;;;;;;0.00;0.00;;;33.90;67.20;;;;;;5037277;28;20575;-62
2023/07/10 10:50:26;;;;;;;0.00;0.00;;;34.00;67.10;;;;;;5050606;28;20586;-63
2023/07/10 10:53:14;;;;;;;0.38;0.10;;;34.20;65.50;;;;;;5050861;28;20226;-62
2023/07/10 10:55:40;;;;;;;0.08;0.08;;;34.10;66.40;;;;;;5050058;28;20173;-62
2023/07/10 10:58:33;;;;;;;0.00;0.00;;;33.80;67.40;;;;;;5050697;28;20660;-62
2023/07/10 11:01:18;;;;;;;0.10;0.10;;;34.00;68.00;;;;;;5050895;28;20184;-62
2023/07/10 11:03:48;;;;;;;0.00;0.00;;;34.50;67.20;;;;;;5050460;28;20212;-63
2023/07/10 11:06:26;;;;;;;0.10;0.10;;;34.90;65.80;;;;;;5050577;28;20201;-63
2023/07/10 11:08:57;;;;;;;0.00;0.00;;;35.00;62.40;;;;;;5050817;28;20181;-63
2023/07/10 11:11:36;;;;;;;0.00;0.00;;;35.00;59.90;;;;;;5049589;28;20553;-63
2023/07/10 11:14:04;;;;;;;0.00;0.00;;;34.90;57.60;;;;;;5050705;28;20204;-63
2023/07/10 11:16:32;;;;;;;0.20;0.20;;;34.40;58.00;;;;;;5050714;28;20264;-62
2023/07/10 11:18:58;;;;;;;0.00;0.00;;;34.00;58.40;;;;;;5050920;28;20181;-63
2023/07/10 11:21:24;;;;;;;0.00;0.00;;;33.80;60.00;;;;;;5050634;28;20173;-63
2023/07/10 11:23:50;;;;;;;0.00;0.00;;;33.70;58.40;;;;;;5050337;28;20251;-63
2023/07/10 11:26:17;;;;;;;0.00;0.00;;;33.80;59.30;;;;;;5050227;28;20181;-63
2023/07/10 11:28:55;;;;;;;0.00;0.00;;;33.80;58.30;;;;;;5049905;28;20217;-63
2023/07/10 11:31:37;;;;;;;0.00;0.00;;;33.80;57.50;;;;;;5050026;28;20271;-63
2023/07/10 11:34:05;;;;;;;0.00;0.00;;;33.50;57.50;;;;;;5041554;28;20181;-63
2023/07/10 11:36:34;;;;;;;0.05;0.05;;;33.50;57.90;;;;;;5050594;28;20239;-63
2023/07/10 11:39:05;;;;;;;0.00;0.00;;;33.90;56.50;;;;;;5050219;28;20222;-63
2023/07/10 11:41:34;;;;;;;0.10;0.10;;;34.30;55.40;;;;;;5050516;28;20189;-62
2023/07/10 11:44:21;;;;;;;0.00;0.00;;;34.00;54.90;;;;;;5050441;28;20282;-63
2023/07/10 11:47:04;;;;;;;0.00;0.00;;;34.20;56.60;;;;;;5053021;28;20203;-63
2023/07/10 11:50:05;;;;;;;0.00;0.00;;;34.20;55.70;;;;;;5054134;28;20250;-62
2023/07/10 11:52:32;;;;;;;0.00;0.00;;;33.90;55.40;;;;;;5053336;28;20311;-64
2023/07/10 11:54:57;;;;;;;0.00;0.00;;;33.90;55.40;;;;;;5053475;28;20717;-64
2023/07/10 11:57:34;;;;;;;0.00;0.00;;;33.90;54.30;;;;;;5053922;28;20268;-63
2023/07/10 12:00:04;;;;;;;0.00;0.00;;;33.90;53.70;;;;;;5054007;28;20169;-63
2023/07/10 12:02:31;;;;;;;0.00;0.00;;;33.90;54.60;;;;;;5053815;28;20174;-63
2023/07/10 12:05:03;;;;;;;0.20;0.00;;;34.10;55.40;;;;;;5053462;28;20220;-63
2023/07/10 12:07:29;;;;;;;0.00;0.00;;;34.30;54.60;;;;;;5053770;28;20176;-63
2023/07/10 12:09:59;;;;;;;0.10;0.10;;;34.60;52.90;;;;;;5053359;28;20180;-63
2023/07/10 12:12:34;;;;;;;0.00;0.00;;;34.80;53.10;;;;;;5053546;28;20258;-64
2023/07/10 12:15:02;;;;;;;0.13;0.13;;;34.80;51.60;;;;;;5053698;28;20180;-63
2023/07/10 12:17:29;;;;;;;0.00;0.00;;;34.70;51.60;;;;;;5053033;28;20285;-63
2023/07/10 12:19:55;;;;;;;0.00;0.00;;;34.70;51.70;;;;;;5053638;28;20173;-63
2023/07/10 12:22:28;;;;;;;0.00;0.00;;;34.60;52.00;;;;;;5053397;28;20188;-63
2023/07/10 12:24:59;;;;;;;0.00;0.00;;;34.50;52.60;;;;;;5053356;28;20278;-63
2023/07/10 12:27:32;;;;;;;0.00;0.00;;;34.50;51.40;;;;;;5053177;28;20226;-63
2023/07/10 12:29:58;;;;;;;0.00;0.00;;;34.50;52.20;;;;;;5053541;28;20187;-63
2023/07/10 12:32:25;;;;;;;0.00;0.00;;;34.30;53.00;;;;;;5053241;28;20173;-63
2023/07/10 12:34:53;;;;;;;0.00;0.00;;;34.00;54.10;;;;;;5053336;28;20185;-61
2023/07/10 12:37:19;;;;;;;0.00;0.00;;;34.20;55.30;;;;;;5053238;28;20231;-62
2023/07/10 12:39:48;;;;;;;0.00;0.00;;;34.40;53.80;;;;;;5052817;28;20181;-61
2023/07/10 12:42:36;;;;;;;0.00;0.00;;;34.40;54.40;;;;;;5052919;28;20600;-61
2023/07/10 12:45:06;;;;;;;0.00;0.00;;;34.20;53.50;;;;;;5052580;28;20703;-62
2023/07/10 12:47:34;;;;;;;0.00;0.00;;;34.30;51.90;;;;;;5052267;28;20185;-62
2023/07/10 12:49:59;;;;;;;0.00;0.00;;;34.50;51.30;;;;;;5052725;28;20585;-60
2023/07/10 12:52:36;;;;;;;0.03;0.03;;;34.30;52.00;;;;;;5052740;28;20256;-63
2023/07/10 12:55:05;;;;;;;0.00;0.00;;;34.50;51.20;;;;;;5052848;28;20203;-61
2023/07/10 12:57:34;;;;;;;0.00;0.00;;;34.60;51.40;;;;;;5052110;28;20208;-61
2023/07/10 13:00:07;;;;;;;0.00;0.00;;;34.60;52.30;;;;;;5052821;28;20641;-61